createdAt,value
2023-06-30T00:01:49.953Z,100051.48
2023-06-30T00:04:19.796Z,100052.61
2023-06-30T00:06:51.029Z,100049.70
2023-06-30T00:09:20.589Z,100049.02
2023-06-30T00:11:52.034Z,100047.12
2023-06-30T00:14:21.113Z,100043.37
2023-06-30T00:16:51.052Z,100047.56
2023-06-30T00:19:20.231Z,100046.05
2023-06-30T00:21:49.447Z,100050.68
2023-06-30T00:24:17.535Z,100048.19
2023-06-30T00:26:45.622Z,100047.84
2023-06-30T00:29:13.809Z,100044.11
2023-06-30T00:31:41.839Z,100043.05
2023-06-30T00:34:10.112Z,100043.65
2023-06-30T00:36:39.654Z,100038.17
2023-06-30T00:39:07.769Z,100038.40
2023-06-30T00:41:35.940Z,100041.77
2023-06-30T00:44:04.069Z,100044.06
2023-06-30T00:46:32.110Z,100041.86
2023-06-30T00:49:00.078Z,100037.73
2023-06-30T00:51:27.938Z,100037.61
2023-06-30T00:53:57.183Z,100032.99
2023-06-30T00:56:27.470Z,100035.00
2023-06-30T00:58:55.883Z,100033.48
2023-06-30T01:01:37.649Z,100030.38
2023-06-30T01:04:18.320Z,100029.11
2023-06-30T01:06:55.463Z,100025.29
2023-06-30T01:09:27.456Z,100019.95
2023-06-30T01:11:56.436Z,100024.34
2023-06-30T01:14:25.631Z,100027.18
2023-06-30T01:16:53.582Z,100024.44
2023-06-30T01:19:31.924Z,100021.09
2023-06-30T01:22:35.072Z,100020.48
2023-06-30T01:25:07.916Z,100017.65
2023-06-30T01:27:37.493Z,100016.50
2023-06-30T01:30:10.303Z,100015.78
2023-06-30T01:32:39.322Z,100015.98
2023-06-30T01:35:07.552Z,100013.51
2023-06-30T01:37:35.469Z,100011.10
2023-06-30T01:40:05.412Z,100010.08
2023-06-30T01:42:35.812Z,100009.88
2023-06-30T01:45:04.924Z,100009.51
2023-06-30T01:47:33.746Z,100009.53
2023-06-30T01:50:01.889Z,100007.68
2023-06-30T01:52:29.763Z,100006.63
2023-06-30T01:54:59.697Z,100013.98
2023-06-30T01:57:27.601Z,100017.58
2023-06-30T01:59:55.612Z,100015.85
2023-06-30T02:02:23.560Z,100013.45
2023-06-30T02:04:51.619Z,100015.06
2023-06-30T02:07:19.463Z,100019.18
2023-06-30T02:09:49.016Z,100020.44
2023-06-30T02:12:17.676Z,100024.55
2023-06-30T02:14:45.626Z,100023.67
2023-06-30T02:17:14.559Z,100031.02
2023-06-30T02:19:43.143Z,100035.60
2023-06-30T02:22:11.125Z,100032.85
2023-06-30T02:24:39.066Z,100030.84
2023-06-30T02:27:08.791Z,100031.84
2023-06-30T02:29:36.837Z,100030.42
2023-06-30T02:32:05.327Z,100028.03
2023-06-30T02:34:33.120Z,100027.70
2023-06-30T02:37:02.219Z,100024.21
2023-06-30T02:39:30.142Z,100021.80
2023-06-30T02:41:57.997Z,100017.31
2023-06-30T02:44:25.884Z,100017.70
2023-06-30T02:46:53.695Z,100018.20
2023-06-30T02:49:21.650Z,100019.61
2023-06-30T02:51:49.823Z,100021.66
2023-06-30T02:54:17.767Z,100018.27
2023-06-30T02:56:46.169Z,100013.30
2023-06-30T02:59:14.703Z,100009.77
2023-06-30T03:01:42.769Z,100012.38
2023-06-30T03:04:11.432Z,100015.54
2023-06-30T03:06:39.422Z,100014.02
2023-06-30T03:09:09.377Z,100013.92
2023-06-30T03:11:37.570Z,100015.08
2023-06-30T03:14:05.518Z,100016.02
2023-06-30T03:16:40.668Z,100013.25
2023-06-30T03:19:08.716Z,100011.31
2023-06-30T03:21:36.958Z,100008.90
2023-06-30T03:24:05.021Z,100008.95
2023-06-30T03:26:32.904Z,100011.67
2023-06-30T03:29:02.938Z,100011.64
2023-06-30T03:31:31.596Z,100009.92
2023-06-30T03:34:00.195Z,100008.15
2023-06-30T03:36:29.533Z,100004.09
2023-06-30T03:38:57.578Z,100001.89
2023-06-30T03:41:25.581Z,99998.88
2023-06-30T03:43:53.491Z,99999.23
2023-06-30T03:46:22.981Z,99995.45
2023-06-30T03:48:50.887Z,99995.76
2023-06-30T03:51:18.806Z,99993.92
2023-06-30T03:53:49.100Z,99993.55
2023-06-30T03:56:16.938Z,99994.78
2023-06-30T03:58:45.400Z,99989.76
2023-06-30T04:01:13.507Z,99991.09
2023-06-30T04:03:42.038Z,99987.98
2023-06-30T04:06:10.696Z,99984.52
2023-06-30T04:08:38.554Z,99982.45
2023-06-30T04:11:06.412Z,99983.17
2023-06-30T04:13:34.250Z,99984.41
2023-06-30T04:16:02.004Z,99987.00
2023-06-30T04:18:30.040Z,99987.51
2023-06-30T04:20:58.247Z,99989.54
2023-06-30T04:23:26.285Z,99983.86
2023-06-30T04:25:54.228Z,99982.58
2023-06-30T04:28:22.100Z,99986.31
2023-06-30T04:30:50.159Z,99984.05
2023-06-30T04:33:18.030Z,99983.48
2023-06-30T04:35:46.094Z,99986.02
2023-06-30T04:38:14.405Z,99989.79
2023-06-30T04:40:42.334Z,99992.15
2023-06-30T04:43:13.701Z,99992.63
2023-06-30T04:45:41.973Z,99992.17
2023-06-30T04:48:10.006Z,99991.19
2023-06-30T04:50:38.167Z,99993.13
2023-06-30T04:53:06.036Z,99996.14
2023-06-30T04:55:34.014Z,99991.40
2023-06-30T04:58:01.869Z,99987.61
2023-06-30T05:00:29.803Z,99991.52
2023-06-30T05:02:57.797Z,99992.30
2023-06-30T05:05:25.936Z,99992.83
2023-06-30T05:07:53.918Z,99991.67
2023-06-30T05:10:21.806Z,99990.15
2023-06-30T05:12:50.017Z,99992.73
2023-06-30T05:15:18.063Z,99994.20
2023-06-30T05:17:46.003Z,99993.41
2023-06-30T05:20:14.016Z,99991.59
2023-06-30T05:22:41.958Z,99991.16
2023-06-30T05:25:10.053Z,99989.73
2023-06-30T05:27:38.064Z,99991.02
2023-06-30T05:30:06.885Z,99992.15
2023-06-30T05:32:35.013Z,99995.14
2023-06-30T05:35:02.842Z,99994.73
2023-06-30T05:37:30.812Z,99997.17
2023-06-30T05:39:58.601Z,99998.20
2023-06-30T05:42:26.414Z,99999.04
2023-06-30T05:44:54.315Z,99999.14
2023-06-30T05:47:22.173Z,99999.70
2023-06-30T05:49:50.025Z,100000.84
2023-06-30T05:52:17.979Z,100004.39
2023-06-30T05:54:45.925Z,100005.84
2023-06-30T05:57:13.910Z,100010.63
2023-06-30T05:59:41.794Z,100012.85
2023-06-30T06:02:09.817Z,100010.66
2023-06-30T06:04:37.920Z,100008.56
2023-06-30T06:07:06.827Z,100008.25
2023-06-30T06:09:35.004Z,100005.92
2023-06-30T06:12:03.761Z,100006.51
2023-06-30T06:14:31.858Z,100007.96
2023-06-30T06:17:00.050Z,100009.23
2023-06-30T06:19:28.012Z,100014.98
2023-06-30T06:21:55.894Z,100006.47
2023-06-30T06:24:23.729Z,100004.58
2023-06-30T06:26:51.843Z,100005.38
2023-06-30T06:29:23.858Z,100005.52
2023-06-30T06:31:54.295Z,100006.17
2023-06-30T06:34:23.245Z,100006.40
2023-06-30T06:36:51.224Z,100005.23
2023-06-30T06:39:20.548Z,100004.31
2023-06-30T06:41:48.544Z,100001.30
2023-06-30T06:44:18.565Z,99999.96
2023-06-30T06:46:46.791Z,99997.27
2023-06-30T06:49:14.918Z,100000.21
2023-06-30T06:51:42.893Z,100003.29
2023-06-30T06:54:10.848Z,100000.11
2023-06-30T06:56:38.738Z,99993.66
2023-06-30T06:59:06.650Z,99991.86
2023-06-30T07:01:34.995Z,99988.92
2023-06-30T07:04:03.026Z,99990.84
2023-06-30T07:06:30.863Z,99987.48
2023-06-30T07:08:58.718Z,99986.27
2023-06-30T07:11:26.819Z,99988.55
2023-06-30T07:13:54.824Z,99985.23
2023-06-30T07:16:23.026Z,99986.09
2023-06-30T07:18:51.019Z,99984.91
2023-06-30T07:21:19.371Z,99978.30
2023-06-30T07:23:50.065Z,99977.03
2023-06-30T07:26:17.989Z,99978.64
2023-06-30T07:28:48.338Z,99978.02
2023-06-30T07:31:16.357Z,99976.38
2023-06-30T07:33:44.563Z,99977.52
2023-06-30T07:36:12.695Z,99976.02
2023-06-30T07:38:41.512Z,99973.77
2023-06-30T07:41:09.492Z,99972.54
2023-06-30T07:43:37.338Z,99972.77
2023-06-30T07:46:05.919Z,99970.45
2023-06-30T07:48:36.865Z,99969.98
2023-06-30T07:51:09.050Z,99971.05
2023-06-30T07:53:38.154Z,99963.89
2023-06-30T07:56:06.285Z,99963.30
2023-06-30T07:58:34.240Z,99960.91
2023-06-30T08:01:02.221Z,99957.55
2023-06-30T08:03:30.493Z,99956.70
2023-06-30T08:06:00.253Z,99952.39
2023-06-30T08:08:30.776Z,99948.27
2023-06-30T08:10:59.233Z,99950.72
2023-06-30T08:13:27.768Z,99946.45
2023-06-30T08:15:55.953Z,99948.42
2023-06-30T08:18:32.214Z,99946.10
2023-06-30T08:21:04.389Z,99947.42
2023-06-30T08:23:32.482Z,99944.70
2023-06-30T08:26:00.569Z,99940.45
2023-06-30T08:28:28.705Z,99937.14
2023-06-30T08:30:56.883Z,99937.73
2023-06-30T08:36:03.348Z,99937.86
2023-06-30T08:38:31.990Z,99931.88
2023-06-30T08:41:01.373Z,99934.10
2023-06-30T08:43:31.576Z,99935.15
2023-06-30T08:46:04.562Z,99930.81
2023-06-30T08:48:33.201Z,99927.45
2023-06-30T08:51:02.317Z,99926.39
2023-06-30T08:53:32.303Z,99924.16
2023-06-30T08:56:01.181Z,99919.38
2023-06-30T08:58:29.914Z,99920.30
2023-06-30T09:00:58.355Z,99918.21
2023-06-30T09:03:27.968Z,99920.55
2023-06-30T09:05:59.660Z,99919.19
2023-06-30T09:09:04.272Z,99913.71
2023-06-30T09:11:34.479Z,99913.80
2023-06-30T09:14:05.025Z,99914.23
2023-06-30T09:16:33.144Z,99910.47
2023-06-30T09:19:01.183Z,99909.73
2023-06-30T09:21:29.129Z,99910.15
2023-06-30T09:23:57.855Z,99905.91
2023-06-30T09:28:58.890Z,99906.10
2023-06-30T09:31:31.839Z,99902.70
2023-06-30T09:34:11.603Z,99899.16
2023-06-30T09:36:49.071Z,99896.96
2023-06-30T09:39:17.726Z,99896.03
2023-06-30T09:41:47.424Z,99901.04
2023-06-30T09:44:24.161Z,99901.14
2023-06-30T09:46:54.436Z,99901.44
2023-06-30T09:49:26.321Z,99902.33
2023-06-30T09:51:57.535Z,99895.23
2023-06-30T09:54:43.771Z,99895.05
2023-06-30T09:57:13.122Z,99894.42
2023-06-30T09:59:40.990Z,99889.80
2023-06-30T10:02:11.476Z,99889.23
2023-06-30T10:04:39.626Z,99886.80
2023-06-30T10:07:08.618Z,99880.45
2023-06-30T10:09:39.581Z,99879.67
2023-06-30T10:12:10.856Z,99877.23
2023-06-30T10:14:39.587Z,99874.10
2023-06-30T10:17:09.090Z,99876.86
2023-06-30T10:19:40.457Z,99879.29
2023-06-30T10:22:09.037Z,99879.04
2023-06-30T10:24:42.870Z,99878.05
2023-06-30T10:27:14.200Z,99871.31
2023-06-30T10:29:42.258Z,99873.35
2023-06-30T10:32:10.082Z,99876.58
2023-06-30T10:34:38.651Z,99878.61
2023-06-30T10:37:08.755Z,99874.96
2023-06-30T10:39:37.007Z,99870.18
2023-06-30T10:42:09.234Z,99866.12
2023-06-30T10:44:44.798Z,99862.81
2023-06-30T10:47:12.975Z,99855.90
2023-06-30T10:49:42.494Z,99855.70
2023-06-30T10:52:25.938Z,99853.68
2023-06-30T10:54:55.194Z,99850.44
2023-06-30T10:57:29.785Z,99845.55
2023-06-30T11:00:08.198Z,99842.20
2023-06-30T11:02:36.363Z,99834.48
2023-06-30T11:05:24.274Z,99834.84
2023-06-30T11:08:08.602Z,99830.12
2023-06-30T11:10:38.710Z,99829.54
2023-06-30T11:13:10.498Z,99824.64
2023-06-30T11:15:45.115Z,99821.46
2023-06-30T11:18:16.647Z,99820.54
2023-06-30T11:21:01.218Z,99819.73
2023-06-30T11:23:34.336Z,99823.57
2023-06-30T11:26:16.448Z,99822.58
2023-06-30T11:28:49.524Z,99822.70
2023-06-30T11:31:18.244Z,99815.45
2023-06-30T11:33:47.417Z,99814.11
2023-06-30T11:36:19.829Z,99814.16
2023-06-30T11:38:52.248Z,99813.27
2023-06-30T11:41:25.158Z,99815.61
2023-06-30T11:43:56.724Z,99811.67
2023-06-30T11:46:25.132Z,99808.96
2023-06-30T11:48:53.809Z,99803.79
2023-06-30T11:51:22.440Z,99798.80
2023-06-30T11:53:50.682Z,99795.94
2023-06-30T11:56:19.793Z,99795.73
2023-06-30T11:58:51.849Z,99797.61
2023-06-30T12:01:23.613Z,99798.02
2023-06-30T12:04:23.043Z,99795.28
2023-06-30T12:06:51.246Z,99791.73
2023-06-30T12:09:19.151Z,99790.26
2023-06-30T12:11:51.373Z,99782.52
2023-06-30T12:16:54.705Z,99777.73
2023-06-30T12:19:29.541Z,99773.58
2023-06-30T12:22:01.281Z,99767.74
2023-06-30T12:24:33.811Z,99762.79
2023-06-30T12:27:09.028Z,99766.09
2023-06-30T12:29:37.784Z,99762.41
2023-06-30T12:32:16.262Z,99760.05
2023-06-30T12:34:47.657Z,99767.08
2023-06-30T12:37:21.019Z,99763.98
2023-06-30T12:39:49.164Z,99760.19
2023-06-30T12:42:19.388Z,99755.60
2023-06-30T12:44:47.432Z,99754.21
2023-06-30T12:47:15.422Z,99757.61
2023-06-30T12:49:43.461Z,99752.69
2023-06-30T12:52:11.551Z,99746.27
2023-06-30T12:54:39.526Z,99749.01
2023-06-30T12:57:07.864Z,99751.46
2023-06-30T12:59:35.832Z,99748.06
2023-06-30T13:02:03.825Z,99744.43
2023-06-30T13:04:31.766Z,99743.90
2023-06-30T13:07:00.664Z,99737.48
2023-06-30T13:09:28.756Z,99730.09
2023-06-30T13:11:57.045Z,99730.65
2023-06-30T13:14:25.115Z,99726.12
2023-06-30T13:16:53.075Z,99723.10
2023-06-30T13:19:23.414Z,99722.00
2023-06-30T13:21:52.166Z,99720.16
2023-06-30T13:24:20.009Z,99718.71
2023-06-30T13:26:48.390Z,99714.45
2023-06-30T13:29:18.003Z,99712.28
2023-06-30T13:31:46.567Z,99708.09
2023-06-30T13:34:14.461Z,99706.51
2023-06-30T13:36:42.424Z,99701.77
2023-06-30T13:39:10.462Z,99698.38
2023-06-30T13:41:39.443Z,99690.03
2023-06-30T13:44:07.375Z,99689.80
2023-06-30T13:46:35.224Z,99685.67
2023-06-30T13:49:03.191Z,99689.21
2023-06-30T13:51:33.549Z,99687.13
2023-06-30T13:54:04.753Z,99687.21
2023-06-30T13:56:35.071Z,99681.84
2023-06-30T13:59:03.139Z,99676.58
2023-06-30T14:01:31.722Z,99673.73
2023-06-30T14:04:05.319Z,99672.86
2023-06-30T14:06:39.759Z,99671.55
2023-06-30T14:09:12.383Z,99666.59
2023-06-30T14:11:43.614Z,99668.29
2023-06-30T14:14:11.643Z,99668.12
2023-06-30T14:16:40.057Z,99664.35
2023-06-30T14:19:10.484Z,99660.63
2023-06-30T14:21:39.055Z,99658.81
2023-06-30T14:24:07.098Z,99656.82
2023-06-30T14:26:37.298Z,99653.14
2023-06-30T14:29:05.557Z,99646.30
2023-06-30T14:31:33.574Z,99644.46
2023-06-30T14:34:01.458Z,99640.86
2023-06-30T14:36:29.443Z,99640.98
2023-06-30T14:38:57.301Z,99642.66
2023-06-30T14:41:25.275Z,99643.73
2023-06-30T14:43:53.294Z,99640.62
2023-06-30T14:46:21.409Z,99637.61
2023-06-30T14:48:49.865Z,99634.46
2023-06-30T14:51:17.744Z,99633.45
2023-06-30T14:53:45.525Z,99629.27
2023-06-30T14:56:13.630Z,99625.09
2023-06-30T14:58:43.009Z,99620.77
2023-06-30T15:01:11.010Z,99619.37
2023-06-30T15:03:39.045Z,99608.82
2023-06-30T15:06:07.126Z,99602.29
2023-06-30T15:08:35.868Z,99599.98
2023-06-30T15:11:03.726Z,99597.92
2023-06-30T15:13:31.997Z,99600.77
2023-06-30T15:15:59.940Z,99594.42
2023-06-30T15:18:28.078Z,99593.75
2023-06-30T15:20:56.172Z,99590.68
2023-06-30T15:23:24.008Z,99586.98
2023-06-30T15:25:52.400Z,99584.91
2023-06-30T15:28:20.312Z,99581.03
2023-06-30T15:30:48.785Z,99576.38
2023-06-30T15:33:17.199Z,99575.66
2023-06-30T15:35:45.597Z,99573.55
2023-06-30T15:38:13.860Z,99568.31
2023-06-30T15:40:42.801Z,99568.27
2023-06-30T15:43:10.648Z,99565.19
2023-06-30T15:45:38.624Z,99562.15
2023-06-30T15:48:14.147Z,99556.42
2023-06-30T15:50:43.200Z,99555.86
2023-06-30T15:53:11.874Z,99553.10
2023-06-30T15:55:39.862Z,99547.86
2023-06-30T15:58:08.972Z,99543.84
2023-06-30T16:00:36.835Z,99541.24
2023-06-30T16:03:07.513Z,99537.73
2023-06-30T16:05:39.394Z,99535.24
2023-06-30T16:08:07.654Z,99534.36
2023-06-30T16:10:37.787Z,99532.67
2023-06-30T16:13:09.420Z,99529.61
2023-06-30T16:15:38.971Z,99528.02
2023-06-30T16:18:06.947Z,99528.97
2023-06-30T16:20:36.095Z,99527.92
2023-06-30T16:23:04.073Z,99524.29
2023-06-30T16:25:32.036Z,99522.77
2023-06-30T16:28:00.059Z,99524.04
2023-06-30T16:30:33.152Z,99518.75
2023-06-30T16:33:01.650Z,99517.21
2023-06-30T16:35:29.756Z,99513.14
2023-06-30T16:38:00.743Z,99514.41
2023-06-30T16:40:28.676Z,99510.22
2023-06-30T16:42:56.630Z,99510.30
2023-06-30T16:45:24.686Z,99511.70
2023-06-30T16:47:52.638Z,99512.91
2023-06-30T16:50:21.129Z,99510.34
2023-06-30T16:52:50.075Z,99515.15
2023-06-30T16:55:18.008Z,99516.55
2023-06-30T16:57:46.120Z,99512.46
2023-06-30T17:00:14.363Z,99514.21
2023-06-30T17:02:42.644Z,99511.77
2023-06-30T17:05:11.486Z,99506.70
2023-06-30T17:07:39.426Z,99505.85
2023-06-30T17:10:07.753Z,99509.85
2023-06-30T17:12:35.712Z,99506.86
2023-06-30T17:15:07.367Z,99501.36
2023-06-30T17:17:35.666Z,99499.13
2023-06-30T17:20:05.221Z,99500.83
2023-06-30T17:22:33.440Z,99502.35
2023-06-30T17:25:05.190Z,99504.02
2023-06-30T17:27:38.455Z,99503.22
2023-06-30T17:30:13.444Z,99497.13
2023-06-30T17:32:41.489Z,99495.39
2023-06-30T17:35:09.515Z,99494.06
2023-06-30T17:37:37.533Z,99497.80
2023-06-30T17:40:06.303Z,99498.29
2023-06-30T17:42:34.236Z,99493.40
2023-06-30T17:45:03.232Z,99488.89
2023-06-30T17:47:31.313Z,99487.91
2023-06-30T17:50:00.682Z,99490.38
2023-06-30T17:52:28.771Z,99491.39
2023-06-30T17:54:56.766Z,99488.52
2023-06-30T17:57:24.588Z,99487.37
2023-06-30T17:59:52.722Z,99485.28
2023-06-30T18:02:20.707Z,99485.50
2023-06-30T18:04:50.254Z,99483.55
2023-06-30T18:07:19.572Z,99481.24
2023-06-30T18:09:47.603Z,99482.12
2023-06-30T18:12:15.820Z,99482.80
2023-06-30T18:14:43.954Z,99485.25
2023-06-30T18:17:11.954Z,99483.15
2023-06-30T18:19:41.528Z,99482.42
2023-06-30T18:22:09.838Z,99487.43
2023-06-30T18:24:38.345Z,99489.63
2023-06-30T18:27:06.638Z,99489.35
2023-06-30T18:29:34.604Z,99488.23
2023-06-30T18:32:02.898Z,99487.70
2023-06-30T18:34:31.242Z,99491.73
2023-06-30T18:37:01.622Z,99492.92
2023-06-30T18:39:29.500Z,99493.25
2023-06-30T18:41:57.425Z,99503.48
2023-06-30T18:44:26.236Z,99509.61
2023-06-30T18:46:54.281Z,99508.61
2023-06-30T18:49:24.888Z,99508.35
2023-06-30T18:51:55.000Z,99510.52
2023-06-30T18:54:23.664Z,99511.60
2023-06-30T18:56:51.962Z,99514.54
2023-06-30T18:59:20.136Z,99519.12
2023-06-30T19:01:48.255Z,99515.98
2023-06-30T19:04:16.870Z,99517.31
2023-06-30T19:06:45.233Z,99522.42
2023-06-30T19:09:13.930Z,99529.14
2023-06-30T19:11:41.890Z,99530.77
2023-06-30T19:14:09.968Z,99532.96
2023-06-30T19:16:37.910Z,99535.20
2023-06-30T19:19:05.695Z,99531.80
2023-06-30T19:21:33.575Z,99532.08
2023-06-30T19:24:01.937Z,99535.57
2023-06-30T19:26:30.066Z,99540.75
2023-06-30T19:28:58.416Z,99539.20
2023-06-30T19:31:27.161Z,99540.19
2023-06-30T19:33:55.221Z,99544.09
2023-06-30T19:36:24.798Z,99547.89
2023-06-30T19:38:52.827Z,99545.70
2023-06-30T19:41:21.006Z,99547.02
2023-06-30T19:43:49.175Z,99549.92
2023-06-30T19:46:17.590Z,99549.09
2023-06-30T19:48:45.766Z,99547.18
2023-06-30T19:51:13.865Z,99545.08
2023-06-30T19:53:42.258Z,99544.67
2023-06-30T19:56:14.501Z,99548.05
2023-06-30T19:58:43.899Z,99555.42
2023-06-30T20:01:11.891Z,99556.61
2023-06-30T20:03:40.387Z,99555.54
2023-06-30T20:06:08.783Z,99557.02
2023-06-30T20:08:36.845Z,99560.63
2023-06-30T20:11:04.854Z,99561.87
2023-06-30T20:13:32.813Z,99560.48
2023-06-30T20:16:00.763Z,99560.23
2023-06-30T20:18:30.423Z,99559.47
2023-06-30T20:20:58.761Z,99555.96
2023-06-30T20:23:26.728Z,99559.22
2023-06-30T20:25:54.940Z,99562.42
2023-06-30T20:28:22.935Z,99563.68
2023-06-30T20:30:51.148Z,99562.82
2023-06-30T20:33:19.643Z,99563.24
2023-06-30T20:35:47.847Z,99561.73
2023-06-30T20:38:18.989Z,99563.09
2023-06-30T20:40:47.385Z,99561.48
2023-06-30T20:43:15.702Z,99564.45
2023-06-30T20:45:43.772Z,99564.68
2023-06-30T20:48:11.798Z,99561.98
2023-06-30T20:50:39.782Z,99563.50
2023-06-30T20:53:08.227Z,99566.17
2023-06-30T20:55:36.182Z,99565.14
2023-06-30T20:58:04.137Z,99560.98
2023-06-30T21:00:32.212Z,99560.89
2023-06-30T21:03:00.269Z,99560.88
2023-06-30T21:05:28.532Z,99565.30
2023-06-30T21:07:56.777Z,99566.48
2023-06-30T21:10:24.611Z,99566.77
2023-06-30T21:12:52.371Z,99567.42
2023-06-30T21:15:20.296Z,99564.19
2023-06-30T21:17:48.218Z,99564.31
2023-06-30T21:20:16.901Z,99564.65
2023-06-30T21:22:44.731Z,99567.31
2023-06-30T21:25:12.790Z,99563.29
2023-06-30T21:27:40.857Z,99562.64
2023-06-30T21:30:11.880Z,99562.40
2023-06-30T21:32:39.871Z,99561.67
2023-06-30T21:35:08.148Z,99560.58
2023-06-30T21:37:36.065Z,99559.77
2023-06-30T21:40:04.328Z,99566.77
2023-06-30T21:42:32.117Z,99563.06
2023-06-30T21:45:00.034Z,99563.89
2023-06-30T21:47:28.199Z,99563.11
2023-06-30T21:49:56.313Z,99564.98
2023-06-30T21:52:24.270Z,99564.50
2023-06-30T21:54:52.139Z,99568.91
2023-06-30T21:57:20.098Z,99570.05
2023-06-30T21:59:48.036Z,99572.23
2023-06-30T22:02:16.212Z,99565.80
2023-06-30T22:04:44.317Z,99562.32
2023-06-30T22:07:12.784Z,99560.92
2023-06-30T22:09:40.601Z,99561.01
2023-06-30T22:12:08.753Z,99563.95
2023-06-30T22:14:37.108Z,99564.52
2023-06-30T22:17:05.769Z,99561.62
2023-06-30T22:19:35.138Z,99559.27
2023-06-30T22:22:05.686Z,99560.55
2023-06-30T22:24:33.836Z,99559.33
2023-06-30T22:27:01.743Z,99558.31
2023-06-30T22:29:29.817Z,99556.85
2023-06-30T22:31:57.687Z,99555.80
2023-06-30T22:34:25.878Z,99557.38
2023-06-30T22:36:53.751Z,99555.13
2023-06-30T22:39:21.629Z,99555.13
2023-06-30T22:41:49.524Z,99553.48
2023-06-30T22:44:17.476Z,99556.06
2023-06-30T22:46:45.332Z,99552.52
2023-06-30T22:49:13.383Z,99554.59
2023-06-30T22:51:41.421Z,99559.27
2023-06-30T22:54:09.196Z,99555.41
2023-06-30T22:56:37.106Z,99558.50
2023-06-30T22:59:05.036Z,99557.69
2023-06-30T23:01:33.063Z,99557.16
2023-06-30T23:04:01.341Z,99558.48
2023-06-30T23:06:29.635Z,99556.21
2023-06-30T23:08:57.847Z,99558.55
2023-06-30T23:11:26.024Z,99558.79
2023-06-30T23:13:53.967Z,99558.30
2023-06-30T23:16:22.936Z,99557.70
2023-06-30T23:18:50.885Z,99556.51
2023-06-30T23:21:19.493Z,99555.98
2023-06-30T23:23:47.526Z,99556.27
2023-06-30T23:26:16.175Z,99554.05
2023-06-30T23:28:50.478Z,99551.44
2023-06-30T23:31:22.789Z,99550.40
2023-06-30T23:33:53.308Z,99551.97
2023-06-30T23:36:21.357Z,99551.75
2023-06-30T23:38:51.225Z,99548.13
2023-06-30T23:41:19.095Z,99545.30
2023-06-30T23:43:48.103Z,99545.02
2023-06-30T23:46:20.633Z,99547.92
2023-06-30T23:48:51.727Z,99547.36
2023-06-30T23:51:19.667Z,99551.25
2023-06-30T23:53:47.676Z,99548.89
2023-06-30T23:56:15.581Z,99549.75
2023-06-30T23:58:43.425Z,99550.86
